Terminal Aerodrome Forecast
Issued by NWS

Current Version | Previous Version | Text Only | Print | Product List | Glossary Off
Versions: 1 2 3 4 5 6 7 8 9 10 11 12 13 14 15 16 17 18 19 20 21

234
FTUS41 KPBZ 181734
TAFHLG
TAF
KHLG 181734Z 1818/1918 VRB03KT P6SM SCT050
     FM190000 08003KT P6SM SCT150
     FM190300 00000KT 5SM BR SCT150
     FM190600 00000KT 1/4SM FG VV002
     FM191400 00000KT P6SM SCT150=

USA.gov is the U.S. government's official web portal to all federal, state and local government web resources and services.